Reid Mcallister — WDE6394 — position and weather

sailwx.info

Track history (hours):
 
Tides and Currents Weather Stations Pressure Air Temp Water Temp Dewpoint Dewpoint Depression Visibility Wind Speed Wind Dir Waves Ship Positions

Reid Mcallister

Owner: McAllister Brothers, LLC, Staten Island, NY. More information available from US FCC via Universal Licensing System and Coast Guard Vessel Documentation Center.

Last reported at 2017-Sep-19 20:30 UTC. Time now 2017-Sep-19 20:39 UTC.
Position N 39°54' W 075°12'.

Length 24 m; draft 3.1 m.

Type: Other ship. MMSI: 367379670.

Date/timePositionNaut miles runAvg speedWind from/ knotsBaromVisibWave heightAir tempDewpointWater temp
2017-Sep-19 20:30N 39°54' W 075°12'0 0.0
2017-Sep-19 20:00N 39°54' W 075°12'0 0.0
2017-Sep-19 19:30N 39°54' W 075°12'0 0.0
2017-Sep-19 19:00N 39°54' W 075°12'0 0.0
2017-Sep-19 18:30N 39°54' W 075°12'0 0.0
2017-Sep-19 18:00N 39°54' W 075°12'0 0.0
2017-Sep-19 17:31N 39°54' W 075°12'0 0.0
2017-Sep-19 17:00N 39°54' W 075°12'0 0.0
2017-Sep-19 16:30N 39°54' W 075°12'0 0.0
2017-Sep-19 16:00N 39°54' W 075°12'0 0.0
2017-Sep-19 15:30N 39°54' W 075°12'0 0.3
2017-Sep-19 15:00N 39°54' W 075°12'3 5.6
2017-Sep-19 14:30N 39°54' W 075°08'1 1.3
2017-Sep-19 14:00N 39°54' W 075°08'3 5.7
2017-Sep-19 13:30N 39°53' W 075°11'1 2.2
2017-Sep-19 13:00N 39°54' W 075°12'0 0.0
2017-Sep-19 12:30N 39°54' W 075°12'0 0.0
2017-Sep-19 12:01N 39°54' W 075°12'0 0.0
2017-Sep-19 11:30N 39°54' W 075°12'0 0.0
2017-Sep-19 11:00N 39°54' W 075°12'0 0.0
2017-Sep-19 10:30N 39°54' W 075°12'0 0.0
2017-Sep-19 10:00N 39°54' W 075°12'0 0.0
2017-Sep-19 09:30N 39°54' W 075°12'0 0.0
2017-Sep-19 09:00N 39°54' W 075°12'0 0.0
2017-Sep-19 08:30N 39°54' W 075°12'0 0.0
2017-Sep-19 08:00N 39°54' W 075°12'0 0.0
2017-Sep-19 07:30N 39°54' W 075°12'0 0.0
2017-Sep-19 07:00N 39°54' W 075°12'0 0.0
2017-Sep-19 06:30N 39°54' W 075°12'0 0.0
2017-Sep-19 06:00N 39°54' W 075°12'1 1.6
2017-Sep-19 05:30N 39°53' W 075°12'4 8.8
2017-Sep-19 05:00N 39°51' W 075°17'3 5.6
2017-Sep-19 04:30N 39°51' W 075°20'0 0.7
2017-Sep-19 04:00N 39°51' W 075°20'2 3.7
2017-Sep-19 03:30N 39°50' W 075°22'2 3.5
2017-Sep-19 03:00N 39°51' W 075°20'4 8.0
2017-Sep-19 02:30N 39°51' W 075°15'4 7.3
2017-Sep-19 02:00N 39°54' W 075°12'0 0.1
2017-Sep-19 01:30N 39°54' W 075°12'0 0.0
2017-Sep-19 01:00N 39°54' W 075°12'0 0.0
2017-Sep-19 00:30N 39°54' W 075°12'0 0.0
2017-Sep-19 00:00N 39°54' W 075°12'0 0.0
2017-Sep-18 23:30N 39°54' W 075°12'0 0.0
2017-Sep-18 23:00N 39°54' W 075°12'0 0.0
2017-Sep-18 22:30N 39°54' W 075°12'0 0.0
2017-Sep-18 22:01N 39°54' W 075°12'0 0.0
2017-Sep-18 21:31N 39°54' W 075°12'0 0.0
2017-Sep-18 21:00N 39°54' W 075°12'0 0.0
2017-Sep-18 20:30N 39°54' W 075°12'0 0.0
2017-Sep-18 20:00N 39°54' W 075°12'1 2.6
2017-Sep-18 19:30N 39°53' W 075°10'4 7.3
2017-Sep-18 19:00N 39°56' W 075°08'4 7.8
2017-Sep-18 18:30N 39°59' W 075°04'1 1.4
2017-Sep-18 18:00N 39°59' W 075°05'0 0.0
2017-Sep-18 17:30N 39°59' W 075°05'0 0.6
2017-Sep-18 17:01N 39°59' W 075°06'4 7.1
2017-Sep-18 16:30N 39°56' W 075°08'2 3.3
2017-Sep-18 16:00N 39°54' W 075°08'2 4.7
2017-Sep-18 15:30N 39°53' W 075°11'1 2.1
2017-Sep-18 15:00N 39°54' W 075°12'0 0.0
2017-Sep-18 14:30N 39°54' W 075°12'0 0.0
2017-Sep-18 14:00N 39°54' W 075°12'0 0.0
2017-Sep-18 13:30N 39°54' W 075°12'0 0.0
2017-Sep-18 13:00N 39°54' W 075°12'0 0.0
2017-Sep-18 12:30N 39°54' W 075°12'0 0.0
2017-Sep-18 12:00N 39°54' W 075°12'0 0.0
2017-Sep-18 11:30N 39°54' W 075°12'0 0.0
2017-Sep-18 11:00N 39°54' W 075°12'0 0.0
2017-Sep-18 10:30N 39°54' W 075°12'0 0.0
2017-Sep-18 10:00N 39°54' W 075°12'0 0.0
2017-Sep-18 09:30N 39°54' W 075°12'0 0.0
2017-Sep-18 09:00N 39°54' W 075°12'0 0.0
2017-Sep-18 08:30N 39°54' W 075°12'0 0.0
2017-Sep-18 08:00N 39°54' W 075°12'0 0.0
2017-Sep-18 07:30N 39°54' W 075°12'0 0.0
2017-Sep-18 07:00N 39°54' W 075°12'0 0.0
2017-Sep-18 06:30N 39°54' W 075°12'0 0.0
2017-Sep-18 06:00N 39°54' W 075°12'0 0.0
2017-Sep-18 05:30N 39°54' W 075°12'0 0.0
2017-Sep-18 05:00N 39°54' W 075°12'0 0.0
2017-Sep-18 04:30N 39°54' W 075°12'0 0.0
2017-Sep-18 04:00N 39°54' W 075°12'0 0.0
2017-Sep-18 03:30N 39°54' W 075°12'0 0.0
2017-Sep-18 03:00N 39°54' W 075°12'0 0.0
2017-Sep-18 02:30N 39°54' W 075°12'0 0.0
2017-Sep-18 02:01N 39°54' W 075°12'0 0.0
2017-Sep-18 01:30N 39°54' W 075°12'3 5.5
2017-Sep-18 01:00N 39°54' W 075°08'4 7.4
2017-Sep-18 00:31N 39°57' W 075°08'2 4.1
2017-Sep-18 00:01N 39°59' W 075°06'0 0.3
2017-Sep-17 23:30N 39°59' W 075°06'0 0.2
2017-Sep-17 23:00N 39°59' W 075°06'0 0.0
2017-Sep-17 22:30N 39°59' W 075°06'0 0.0
2017-Sep-17 22:01N 39°59' W 075°06'0 0.0
2017-Sep-17 21:31N 39°59' W 075°06'0 0.0
2017-Sep-17 21:00N 39°59' W 075°06'0 0.6
2017-Sep-17 20:30N 39°58' W 075°06'3 5.9
2017-Sep-17 20:00N 39°56' W 075°08'2 3.9
2017-Sep-17 19:30N 39°54' W 075°08'1 2.1
2017-Sep-17 19:01N 39°53' W 075°08'1 2.2
2017-Sep-17 18:30N 39°53' W 075°10'2 3.1
2017-Sep-17 18:01N 39°54' W 075°08'0 0.0
2017-Sep-17 17:31N 39°54' W 075°08'0 0.0
2017-Sep-17 17:01N 39°54' W 075°08'0 0.0
2017-Sep-17 16:31N 39°54' W 075°08'0 0.0
2017-Sep-17 16:01N 39°54' W 075°08'0 0.0
2017-Sep-17 15:31N 39°54' W 075°08'0 0.0
2017-Sep-17 15:00N 39°54' W 075°08'0 0.0
2017-Sep-17 14:31N 39°54' W 075°08'0 0.0
2017-Sep-17 14:00N 39°54' W 075°08'0 0.0
2017-Sep-17 13:31N 39°54' W 075°08'0 0.0
2017-Sep-17 13:01N 39°54' W 075°08'0 0.0
2017-Sep-17 12:31N 39°54' W 075°08'0 0.0
2017-Sep-17 12:00N 39°54' W 075°08'0 0.7
2017-Sep-17 11:31N 39°54' W 075°08'0 0.7
2017-Sep-17 11:00N 39°54' W 075°08'0 0.0
2017-Sep-17 10:30N 39°54' W 075°08'0 0.0
2017-Sep-17 10:00N 39°54' W 075°08'0 0.0
2017-Sep-17 09:30N 39°54' W 075°08'0 0.0
2017-Sep-17 09:00N 39°54' W 075°08'0 0.0
2017-Sep-17 08:31N 39°54' W 075°08'0 0.0
2017-Sep-17 08:00N 39°54' W 075°08'0 0.0
2017-Sep-17 07:30N 39°54' W 075°08'0 0.0
2017-Sep-17 07:01N 39°54' W 075°08'0 0.0
2017-Sep-17 06:31N 39°54' W 075°08'0 0.0
2017-Sep-17 06:00N 39°54' W 075°08'0 0.0
2017-Sep-17 05:30N 39°54' W 075°08'2 4.4
2017-Sep-17 05:00N 39°56' W 075°08'3 6.3
2017-Sep-17 04:30N 39°59' W 075°06'0 0.1
2017-Sep-17 04:00N 39°59' W 075°06'2 4.7
2017-Sep-17 03:30N 39°57' W 075°08'2 4.7
2017-Sep-17 03:00N 39°59' W 075°06'0 0.0
2017-Sep-17 02:30N 39°59' W 075°06'0 0.0
2017-Sep-17 02:00N 39°59' W 075°06'2 4.3
2017-Sep-17 01:31N 39°57' W 075°08'3 6.2
2017-Sep-17 01:00N 39°54' W 075°08'1 2.9
2017-Sep-17 00:31N 39°53' W 075°09'2 4.9
2017-Sep-17 00:00N 39°54' W 075°12'0 0.0
2017-Sep-16 23:30N 39°54' W 075°12'0 0.0
2017-Sep-16 23:01N 39°54' W 075°12'0 0.0
2017-Sep-16 22:31N 39°54' W 075°12'0 0.0
2017-Sep-16 22:00N 39°54' W 075°12'0 0.0
2017-Sep-16 21:30N 39°54' W 075°12'0 0.0
2017-Sep-16 21:00N 39°54' W 075°12'0 0.0
2017-Sep-16 20:30N 39°54' W 075°12'0 0.0
2017-Sep-16 20:01N 39°54' W 075°12'0 0.0
2017-Sep-16 19:31N 39°54' W 075°12'0 0.0
2017-Sep-16 19:00N 39°54' W 075°12'0 0.0
2017-Sep-16 18:30N 39°54' W 075°12'1 1.7
2017-Sep-16 18:01N 39°53' W 075°12'3 5.1
2017-Sep-16 17:31N 39°53' W 075°08'1 1.4
2017-Sep-16 17:01N 39°54' W 075°08'0 0.5
2017-Sep-16 16:30N 39°54' W 075°08'0 0.0
2017-Sep-16 16:01N 39°54' W 075°08'0 0.0
2017-Sep-16 15:30N 39°54' W 075°08'0 0.0
2017-Sep-16 15:00N 39°54' W 075°08'1 2.0
2017-Sep-16 14:30N 39°53' W 075°09'4 8.9
2017-Sep-16 14:00N 39°51' W 075°14'0 0.0
2017-Sep-16 13:31N 39°51' W 075°14'2 3.2
2017-Sep-16 13:00N 39°51' W 075°16'2 3.4
2017-Sep-16 12:30N 39°51' W 075°14'3 6.0
2017-Sep-16 12:01N 39°54' W 075°12'0 0.2
2017-Sep-16 11:30N 39°54' W 075°12'0 0.0
2017-Sep-16 11:01N 39°54' W 075°12'0 0.0
2017-Sep-16 10:31N 39°54' W 075°12'0 0.0
2017-Sep-16 10:01N 39°54' W 075°12'0 0.0
2017-Sep-16 09:30N 39°54' W 075°12'0 0.0
2017-Sep-16 09:01N 39°54' W 075°12'0 0.0
2017-Sep-16 08:30N 39°54' W 075°12'0 0.0
2017-Sep-16 08:00N 39°54' W 075°12'0 0.0
2017-Sep-16 07:31N 39°54' W 075°12'0 0.0
2017-Sep-16 07:00N 39°54' W 075°12'0 0.0
2017-Sep-16 06:31N 39°54' W 075°12'0 0.0
2017-Sep-16 06:01N 39°54' W 075°12'0 0.0
2017-Sep-16 05:31N 39°54' W 075°12'0 0.0
2017-Sep-16 05:01N 39°54' W 075°12'0 0.0
2017-Sep-16 04:31N 39°54' W 075°12'0 0.0
2017-Sep-16 04:01N 39°54' W 075°12'0 0.0
2017-Sep-16 03:31N 39°54' W 075°12'1 2.2
2017-Sep-16 03:00N 39°53' W 075°11'0 0.4
2017-Sep-16 02:30N 39°53' W 075°11'1 1.9
2017-Sep-16 02:01N 39°54' W 075°12'0 0.0
2017-Sep-16 01:31N 39°54' W 075°12'3 5.5
2017-Sep-16 01:01N 39°54' W 075°08'2 3.1
2017-Sep-16 00:30N 39°55' W 075°08'0 0.0
2017-Sep-16 00:00N 39°55' W 075°08'2 4.6
2017-Sep-15 23:30N 39°53' W 075°09'2 4.9
2017-Sep-15 23:00N 39°54' W 075°12'0 0.0
2017-Sep-15 22:30N 39°54' W 075°12'0 0.0
2017-Sep-15 22:01N 39°54' W 075°12'0 0.0
2017-Sep-15 21:31N 39°54' W 075°12'0 0.0
2017-Sep-15 21:00N 39°54' W 075°12'0 0.0
2017-Sep-15 20:30N 39°54' W 075°12'0 0.0
2017-Sep-15 20:00N 39°54' W 075°12'0 0.0
2017-Sep-15 19:30N 39°54' W 075°12'0 0.0
2017-Sep-15 19:00N 39°54' W 075°12'0 0.0
2017-Sep-15 18:30N 39°54' W 075°12'0 0.0
2017-Sep-15 18:00N 39°54' W 075°12'0 0.0
2017-Sep-15 17:30N 39°54' W 075°12'0 0.0
2017-Sep-15 17:01N 39°54' W 075°12'3 5.1
2017-Sep-15 16:31N 39°53' W 075°09'1 2.2
2017-Sep-15 16:00N 39°54' W 075°08'1 1.5
2017-Sep-15 15:30N 39°53' W 075°08'2 3.7
2017-Sep-15 15:00N 39°53' W 075°11'2 4.0
2017-Sep-15 14:30N 39°54' W 075°08'1 1.3
2017-Sep-15 14:00N 39°53' W 075°09'3 5.1
2017-Sep-15 13:30N 39°54' W 075°12'0 0.0
2017-Sep-15 13:01N 39°54' W 075°12'0 0.0
2017-Sep-15 12:30N 39°54' W 075°12'0 0.0
2017-Sep-15 12:00N 39°54' W 075°12'0 0.0
2017-Sep-15 11:31N 39°54' W 075°12'0 0.0
2017-Sep-15 11:01N 39°54' W 075°12'0 0.0
2017-Sep-15 10:31N 39°54' W 075°12'0 0.0
2017-Sep-15 10:00N 39°54' W 075°12'0 0.0
2017-Sep-15 09:30N 39°54' W 075°12'0 0.0
2017-Sep-15 09:01N 39°54' W 075°12'0 0.0
2017-Sep-15 08:30N 39°54' W 075°12'0 0.0
2017-Sep-15 08:01N 39°54' W 075°12'0 0.0
2017-Sep-15 07:31N 39°54' W 075°12'0 0.0
2017-Sep-15 07:01N 39°54' W 075°12'0 0.0
2017-Sep-15 06:30N 39°54' W 075°12'0 0.1
2017-Sep-15 06:01N 39°54' W 075°12'3 6.0
2017-Sep-15 05:30N 39°54' W 075°08'1 1.7
2017-Sep-15 05:00N 39°55' W 075°08'0 0.7
2017-Sep-15 04:30N 39°55' W 075°08'1 2.8
2017-Sep-15 04:00N 39°56' W 075°08'0 0.6
2017-Sep-15 03:30N 39°56' W 075°08'1 2.3
2017-Sep-15 03:00N 39°55' W 075°08'1 2.7
2017-Sep-15 02:31N 39°56' W 075°08'0 0.0
2017-Sep-15 02:00N 39°56' W 075°08'0 0.0
2017-Sep-15 01:30N 39°56' W 075°08'0 0.0
2017-Sep-15 01:00N 39°56' W 075°08'2 3.6
2017-Sep-15 00:30N 39°54' W 075°08'0 0.8
2017-Sep-15 00:00N 39°54' W 075°08'0 0.4
2017-Sep-14 23:30N 39°54' W 075°08'0 0.7
2017-Sep-14 23:00N 39°54' W 075°08'0 0.1
2017-Sep-14 22:30N 39°54' W 075°08'3 6.4
2017-Sep-14 22:00N 39°58' W 075°08'3 6.2
2017-Sep-14 21:30N 39°59' W 075°04'0 0.0
2017-Sep-14 21:00N 39°59' W 075°04'0 0.1
2017-Sep-14 20:30N 39°59' W 075°04'3 5.9
2017-Sep-14 20:00N 39°58' W 075°08'4 8.4
2017-Sep-14 19:31N 39°53' W 075°08'3 5.4
2017-Sep-14 19:00N 39°54' W 075°12'0 0.0
2017-Sep-14 18:30N 39°54' W 075°12'0 0.0
2017-Sep-14 18:00N 39°54' W 075°12'0 0.0
2017-Sep-14 17:30N 39°54' W 075°12'0 0.0
2017-Sep-14 17:00N 39°54' W 075°12'0 0.0
2017-Sep-14 16:30N 39°54' W 075°12'0 0.0
2017-Sep-14 16:00N 39°54' W 075°12'0 0.0
2017-Sep-14 15:30N 39°54' W 075°12'0 0.0
2017-Sep-14 15:00N 39°54' W 075°12'0 0.0
2017-Sep-14 14:30N 39°54' W 075°12'0 0.0
2017-Sep-14 14:01N 39°54' W 075°12'0 0.0
2017-Sep-14 13:31N 39°54' W 075°12'0 0.1
2017-Sep-14 13:00N 39°54' W 075°12'0 0.0
2017-Sep-14 12:30N 39°54' W 075°12'0 0.0
2017-Sep-14 12:00N 39°54' W 075°12'0 0.0
2017-Sep-14 11:31N 39°54' W 075°12'0 0.0
2017-Sep-14 11:00N 39°54' W 075°12'0 0.0
2017-Sep-14 10:30N 39°54' W 075°12'0 0.0
2017-Sep-14 10:00N 39°54' W 075°12'0 0.0
2017-Sep-14 09:31N 39°54' W 075°12'0 0.0
2017-Sep-14 09:01N 39°54' W 075°12'0 0.0
2017-Sep-14 08:31N 39°54' W 075°12'0 0.0
2017-Sep-14 08:01N 39°54' W 075°12'0 0.0
2017-Sep-14 07:30N 39°54' W 075°12'0 0.0
2017-Sep-14 07:00N 39°54' W 075°12'0 0.0
2017-Sep-14 06:31N 39°54' W 075°12'0 0.0
2017-Sep-14 06:00N 39°54' W 075°12'0 0.0
2017-Sep-14 05:31N 39°54' W 075°12'0 0.0
2017-Sep-14 05:00N 39°54' W 075°12'0 0.0
2017-Sep-14 04:31N 39°54' W 075°12'0 0.0
2017-Sep-14 04:01N 39°54' W 075°12'0 0.0
2017-Sep-14 03:30N 39°54' W 075°12'0 0.0
2017-Sep-14 03:00N 39°54' W 075°12'2 3.0
2017-Sep-14 02:30N 39°53' W 075°10'2 4.3
2017-Sep-14 02:00N 39°54' W 075°08'1 1.8
2017-Sep-14 01:31N 39°53' W 075°08'0 0.7
2017-Sep-14 01:01N 39°53' W 075°09'0 0.5
2017-Sep-14 00:30N 39°53' W 075°08'3 6.0
2017-Sep-14 00:00N 39°53' W 075°12'1 1.5
2017-Sep-13 23:30N 39°52' W 075°13'0 0.0
2017-Sep-13 23:01N 39°52' W 075°13'1 1.3
2017-Sep-13 22:31N 39°53' W 075°12'1 2.5
2017-Sep-13 22:00N 39°54' W 075°12'0 0.0
2017-Sep-13 21:30N 39°54' W 075°12'0 0.0
2017-Sep-13 21:00N 39°54' W 075°12'0 0.0
2017-Sep-13 20:30N 39°54' W 075°12'0 0.0
2017-Sep-13 20:00N 39°54' W 075°12'0 0.0
2017-Sep-13 19:31N 39°54' W 075°12'0 0.0
2017-Sep-13 19:00N 39°54' W 075°12'0 0.0
2017-Sep-13 18:31N 39°54' W 075°12'0 0.0
2017-Sep-13 18:00N 39°54' W 075°12'0 0.0
2017-Sep-13 17:31N 39°54' W 075°12'0 0.0
2017-Sep-13 17:01N 39°54' W 075°12'0 0.0
2017-Sep-13 16:30N 39°54' W 075°12'0 0.0
2017-Sep-13 16:00N 39°54' W 075°12'0 0.0
2017-Sep-13 15:30N 39°54' W 075°12'0 0.0
2017-Sep-13 15:01N 39°54' W 075°12'0 0.0
2017-Sep-13 14:31N 39°54' W 075°12'0 0.0
2017-Sep-13 14:01N 39°54' W 075°12'0 0.0
2017-Sep-13 13:30N 39°54' W 075°12'0 0.0
2017-Sep-13 13:01N 39°54' W 075°12'0 0.0
2017-Sep-13 12:31N 39°54' W 075°12'0 0.0
2017-Sep-13 12:00N 39°54' W 075°12'0 0.0
2017-Sep-13 11:31N 39°54' W 075°12'0 0.0
2017-Sep-13 11:00N 39°54' W 075°12'0 0.0
2017-Sep-13 10:30N 39°54' W 075°12'0 0.0
2017-Sep-13 10:01N 39°54' W 075°12'0 0.0
2017-Sep-13 09:30N 39°54' W 075°12'0 0.0
2017-Sep-13 09:01N 39°54' W 075°12'0 0.0
2017-Sep-13 08:30N 39°54' W 075°12'0 0.0
2017-Sep-13 08:00N 39°54' W 075°12'0 0.0
2017-Sep-13 07:30N 39°54' W 075°12'0 0.0
2017-Sep-13 07:01N 39°54' W 075°12'0 0.0
2017-Sep-13 06:30N 39°54' W 075°12'0 0.0
2017-Sep-13 06:00N 39°54' W 075°12'0 0.0
2017-Sep-13 05:31N 39°54' W 075°12'0 0.0
2017-Sep-13 05:01N 39°54' W 075°12'0 0.0
2017-Sep-13 04:31N 39°54' W 075°12'0 0.0
2017-Sep-13 04:00N 39°54' W 075°12'0 0.0
2017-Sep-13 03:31N 39°54' W 075°12'0 0.0
2017-Sep-13 03:00N 39°54' W 075°12'0 0.0
2017-Sep-13 02:30N 39°54' W 075°12'0 0.0
2017-Sep-13 02:00N 39°54' W 075°12'0 0.0
2017-Sep-13 01:31N 39°54' W 075°12'0 0.0
2017-Sep-13 01:00N 39°54' W 075°12'0 0.0
2017-Sep-13 00:30N 39°54' W 075°12'0 0.0
2017-Sep-13 00:00N 39°54' W 075°12'0 0.0
2017-Sep-12 23:30N 39°54' W 075°12'0 0.0
2017-Sep-12 23:00N 39°54' W 075°12'0 0.0
2017-Sep-12 22:30N 39°54' W 075°12'0 0.0
2017-Sep-12 22:01N 39°54' W 075°12'0 0.0
2017-Sep-12 21:30N 39°54' W 075°12'0 0.0
2017-Sep-12 21:00N 39°54' W 075°12'0 0.0
2017-Sep-12 20:30N 39°54' W 075°12'0 0.0
2017-Sep-12 20:00N 39°54' W 075°12'0 0.0
2017-Sep-12 19:30N 39°54' W 075°12'0 0.2
2017-Sep-12 19:00N 39°54' W 075°12'4 7.2
2017-Sep-12 18:30N 39°51' W 075°15'0 0.0
2017-Sep-12 18:01N 39°51' W 075°15'0 0.6
2017-Sep-12 17:30N 39°51' W 075°15'0 0.6
2017-Sep-12 17:00N 39°51' W 075°15'0 0.0
2017-Sep-12 16:30N 39°51' W 075°15'2 4.8
2017-Sep-12 16:00N 39°52' W 075°13'1 2.5
2017-Sep-12 15:31N 39°54' W 075°12'0 0.2
2017-Sep-12 15:00N 39°54' W 075°12'0 0.2
2017-Sep-12 14:30N 39°54' W 075°12'0 0.6
2017-Sep-12 14:01N 39°54' W 075°12'0 0.0
2017-Sep-12 13:30N 39°54' W 075°12'0 0.0
2017-Sep-12 13:00N 39°54' W 075°12'0 0.2
2017-Sep-12 12:31N 39°54' W 075°12'21 6.5
2017-Sep-12 09:15N 40°07' W 074°50'1 5.8
2017-Sep-12 09:00N 40°08' W 074°49'3 5.1
2017-Sep-12 08:30N 40°08' W 074°45'0 0.2
2017-Sep-12 08:00N 40°08' W 074°45'4 7.8
2017-Sep-12 07:30N 40°07' W 074°50'4 8.7
2017-Sep-12 07:00N 40°04' W 074°55'5 9.1
2017-Sep-12 06:30N 40°02' W 074°60'4 8.4
2017-Sep-12 06:00N 39°59' W 075°04'4 7.9
2017-Sep-12 05:30N 39°57' W 075°08'4 8.2
2017-Sep-12 05:01N 39°53' W 075°09'2 4.6
2017-Sep-12 04:30N 39°54' W 075°12'0 0.0
2017-Sep-12 04:01N 39°54' W 075°12'0 0.0
2017-Sep-12 03:30N 39°54' W 075°12'0 0.0
2017-Sep-12 03:00N 39°54' W 075°12'0 0.0
2017-Sep-12 02:30N 39°54' W 075°12'0 0.0
2017-Sep-12 02:00N 39°54' W 075°12'2 3.6
2017-Sep-12 01:30N 39°52' W 075°13'5 9.3
2017-Sep-12 01:01N 39°51' W 075°19'5 9.1
2017-Sep-12 00:31N 39°49' W 075°24'5 9.1
2017-Sep-12 00:00N 39°46' W 075°29'5 9.4
2017-Sep-11 23:30N 39°42' W 075°31'5 9.6
2017-Sep-11 23:01N 39°38' W 075°35'4 8.6
2017-Sep-11 22:31N 39°34' W 075°33'1 2.1
2017-Sep-11 22:00N 39°34' W 075°34'2 3.0
2017-Sep-11 21:30N 39°35' W 075°35'0 0.3
2017-Sep-11 21:00N 39°35' W 075°35'0 0.0
2017-Sep-11 20:30N 39°35' W 075°35'0 0.0
2017-Sep-11 20:00N 39°35' W 075°35'1 2.5
2017-Sep-11 19:31N 39°36' W 075°34'3 6.4
2017-Sep-11 19:00N 39°39' W 075°33'3 6.8
2017-Sep-11 18:30N 39°42' W 075°31'3 6.8
2017-Sep-11 18:01N 39°45' W 075°30'4 7.2
2017-Sep-11 17:30N 39°48' W 075°27'4 7.8
2017-Sep-11 17:00N 39°50' W 075°22'4 8.1
2017-Sep-11 16:30N 39°51' W 075°17'2 3.5
2017-Sep-11 16:00N 39°51' W 075°15'1 1.3
2017-Sep-11 15:30N 39°51' W 075°14'0 0.0
2017-Sep-11 15:00N 39°51' W 075°14'0 0.1
2017-Sep-11 14:30N 39°51' W 075°14'1 1.3
2017-Sep-11 14:00N 39°51' W 075°15'1 2.4
2017-Sep-11 13:30N 39°52' W 075°14'3 5.0
2017-Sep-11 13:00N 39°54' W 075°12'0 0.0
2017-Sep-11 12:30N 39°54' W 075°12'2 4.9
2017-Sep-11 12:01N 39°53' W 075°09'5 9.6
2017-Sep-11 11:30N 39°58' W 075°08'4 8.9
2017-Sep-11 11:01N 40°00' W 075°03'510.0
2017-Sep-11 10:30N 40°03' W 074°58'5 9.6
2017-Sep-11 10:00N 40°05' W 074°52'4 7.4
2017-Sep-11 09:30N 40°07' W 074°48'2 4.8
2017-Sep-11 09:00N 40°08' W 074°45'0 0.3
2017-Sep-11 08:30N 40°08' W 074°45'0 0.4
2017-Sep-11 08:00N 40°08' W 074°45'0 0.0
2017-Sep-11 07:30N 40°08' W 074°45'0 0.0
2017-Sep-11 07:00N 40°08' W 074°45'0 0.0
2017-Sep-11 06:30N 40°08' W 074°45'0 0.0
2017-Sep-11 06:01N 40°08' W 074°45'0 0.1
2017-Sep-11 05:28N 40°08' W 074°45'4 8.4
2017-Sep-11 05:00N 40°07' W 074°50'5 9.1
2017-Sep-11 04:30N 40°04' W 074°55'4 8.9
2017-Sep-11 04:00N 40°02' W 074°60'4 8.0
2017-Sep-11 03:30N 39°59' W 075°04'3 6.5
2017-Sep-11 03:00N 39°58' W 075°08'4 7.9
2017-Sep-11 02:30N 39°54' W 075°08'3 5.7
2017-Sep-11 02:00N 39°54' W 075°12'0 0.0
2017-Sep-11 01:30N 39°54' W 075°12'0 0.0
2017-Sep-11 01:00N 39°54' W 075°12'0 0.0
2017-Sep-11 00:30N 39°54' W 075°12'0 0.0
2017-Sep-11 00:00N 39°54' W 075°12'0 0.0
2017-Sep-10 23:30N 39°54' W 075°12'0 0.0
2017-Sep-10 23:00N 39°54' W 075°12'2 4.2
2017-Sep-10 22:30N 39°53' W 075°09'0 0.1
2017-Sep-10 22:00N 39°53' W 075°09'0 0.5
2017-Sep-10 21:30N 39°53' W 075°10'2 4.8
2017-Sep-10 21:00N 39°52' W 075°13'2 3.2
2017-Sep-10 20:30N 39°54' W 075°12'0 0.0
2017-Sep-10 20:00N 39°54' W 075°12'0 0.0
2017-Sep-10 19:30N 39°54' W 075°12'0 0.0
2017-Sep-10 19:00N 39°54' W 075°12'0 0.0
2017-Sep-10 18:30N 39°54' W 075°12'0 0.0
2017-Sep-10 18:00N 39°54' W 075°12'0 0.0
2017-Sep-10 17:31N 39°54' W 075°12'2 4.4
2017-Sep-10 17:00N 39°53' W 075°09'1 2.9
2017-Sep-10 16:30N 39°54' W 075°08'1 2.8
2017-Sep-10 16:00N 39°53' W 075°09'1 2.8
2017-Sep-10 15:31N 39°53' W 075°11'1 1.3
2017-Sep-10 15:00N 39°53' W 075°10'2 1.7
2017-Sep-10 14:00N 39°54' W 075°12'0 0.0
2017-Sep-10 13:30N 39°54' W 075°12'0 0.0
2017-Sep-10 13:00N 39°54' W 075°12'0 0.0
2017-Sep-10 12:30N 39°54' W 075°12'0 0.0
2017-Sep-10 12:00N 39°54' W 075°12'0 0.0
2017-Sep-10 11:31N 39°54' W 075°12'0 0.0
2017-Sep-10 11:00N 39°54' W 075°12'0 0.0
2017-Sep-10 10:31N 39°54' W 075°12'0 0.0
2017-Sep-10 10:00N 39°54' W 075°12'0 0.0
2017-Sep-10 09:31N 39°54' W 075°12'0 0.0
2017-Sep-10 09:01N 39°54' W 075°12'0 0.0
2017-Sep-10 08:31N 39°54' W 075°12'0 0.0
2017-Sep-10 08:01N 39°54' W 075°12'0 0.0
2017-Sep-10 07:31N 39°54' W 075°12'0 0.0
2017-Sep-10 07:00N 39°54' W 075°12'0 0.0
2017-Sep-10 06:30N 39°54' W 075°12'0 0.0
2017-Sep-10 06:01N 39°54' W 075°12'0 0.0
2017-Sep-10 05:30N 39°54' W 075°12'0 0.0
2017-Sep-10 05:00N 39°54' W 075°12'0 0.0
2017-Sep-10 04:30N 39°54' W 075°12'3 5.9
2017-Sep-10 04:00N 39°54' W 075°08'0 0.3
2017-Sep-10 03:30N 39°54' W 075°08'2 4.3
2017-Sep-10 03:00N 39°53' W 075°11'2 4.9
2017-Sep-10 02:30N 39°54' W 075°08'3 5.6
2017-Sep-10 02:00N 39°53' W 075°11'1 2.1
2017-Sep-10 01:30N 39°54' W 075°12'0 0.0
2017-Sep-10 01:00N 39°54' W 075°12'0 0.0
2017-Sep-10 00:30N 39°54' W 075°12'0 0.0
2017-Sep-10 00:01N 39°54' W 075°12'0 0.0
2017-Sep-09 23:31N 39°54' W 075°12'0 0.0
2017-Sep-09 23:00N 39°54' W 075°12'0 0.0
2017-Sep-09 22:30N 39°54' W 075°12'0 0.0
2017-Sep-09 22:00N 39°54' W 075°12'0 0.0
2017-Sep-09 21:30N 39°54' W 075°12'0 0.0
2017-Sep-09 21:00N 39°54' W 075°12'0 0.0
2017-Sep-09 20:30N 39°54' W 075°12'  
Track history (hours):
 
Tides and Currents Weather Stations Pressure Air Temp Water Temp Dewpoint Dewpoint Depression Visibility Wind Speed Wind Dir Waves Ship Positions

Reid Mcallister

Owner: McAllister Brothers, LLC, Staten Island, NY. More information available from US FCC via Universal Licensing System and Coast Guard Vessel Documentation Center.

Last reported at 2017-Sep-19 20:30 UTC. Time now 2017-Sep-19 20:39 UTC.
Position N 39°54' W 075°12'.

Length 24 m; draft 3.1 m.

Type: Other ship. MMSI: 367379670.

Date/timePositionNaut miles runAvg speedWind from/ knotsBaromVisibWave heightAir tempDewpointWater temp
2017-Sep-19 20:30N 39°54' W 075°12'0 0.0
2017-Sep-19 20:00N 39°54' W 075°12'0 0.0
2017-Sep-19 19:30N 39°54' W 075°12'0 0.0
2017-Sep-19 19:00N 39°54' W 075°12'0 0.0
2017-Sep-19 18:30N 39°54' W 075°12'0 0.0
2017-Sep-19 18:00N 39°54' W 075°12'0 0.0
2017-Sep-19 17:31N 39°54' W 075°12'0 0.0
2017-Sep-19 17:00N 39°54' W 075°12'0 0.0
2017-Sep-19 16:30N 39°54' W 075°12'0 0.0
2017-Sep-19 16:00N 39°54' W 075°12'0 0.0
2017-Sep-19 15:30N 39°54' W 075°12'0 0.3
2017-Sep-19 15:00N 39°54' W 075°12'3 5.6
2017-Sep-19 14:30N 39°54' W 075°08'1 1.3
2017-Sep-19 14:00N 39°54' W 075°08'3 5.7
2017-Sep-19 13:30N 39°53' W 075°11'1 2.2
2017-Sep-19 13:00N 39°54' W 075°12'0 0.0
2017-Sep-19 12:30N 39°54' W 075°12'0 0.0
2017-Sep-19 12:01N 39°54' W 075°12'0 0.0
2017-Sep-19 11:30N 39°54' W 075°12'0 0.0
2017-Sep-19 11:00N 39°54' W 075°12'0 0.0
2017-Sep-19 10:30N 39°54' W 075°12'0 0.0
2017-Sep-19 10:00N 39°54' W 075°12'0 0.0
2017-Sep-19 09:30N 39°54' W 075°12'0 0.0
2017-Sep-19 09:00N 39°54' W 075°12'0 0.0
2017-Sep-19 08:30N 39°54' W 075°12'0 0.0
2017-Sep-19 08:00N 39°54' W 075°12'0 0.0
2017-Sep-19 07:30N 39°54' W 075°12'0 0.0
2017-Sep-19 07:00N 39°54' W 075°12'0 0.0
2017-Sep-19 06:30N 39°54' W 075°12'0 0.0
2017-Sep-19 06:00N 39°54' W 075°12'1 1.6
2017-Sep-19 05:30N 39°53' W 075°12'4 8.8
2017-Sep-19 05:00N 39°51' W 075°17'3 5.6
2017-Sep-19 04:30N 39°51' W 075°20'0 0.7
2017-Sep-19 04:00N 39°51' W 075°20'2 3.7
2017-Sep-19 03:30N 39°50' W 075°22'2 3.5
2017-Sep-19 03:00N 39°51' W 075°20'4 8.0
2017-Sep-19 02:30N 39°51' W 075°15'4 7.3
2017-Sep-19 02:00N 39°54' W 075°12'0 0.1
2017-Sep-19 01:30N 39°54' W 075°12'0 0.0
2017-Sep-19 01:00N 39°54' W 075°12'0 0.0
2017-Sep-19 00:30N 39°54' W 075°12'0 0.0
2017-Sep-19 00:00N 39°54' W 075°12'0 0.0
2017-Sep-18 23:30N 39°54' W 075°12'0 0.0
2017-Sep-18 23:00N 39°54' W 075°12'0 0.0
2017-Sep-18 22:30N 39°54' W 075°12'0 0.0
2017-Sep-18 22:01N 39°54' W 075°12'0 0.0
2017-Sep-18 21:31N 39°54' W 075°12'0 0.0
2017-Sep-18 21:00N 39°54' W 075°12'0 0.0
2017-Sep-18 20:30N 39°54' W 075°12'0 0.0
2017-Sep-18 20:00N 39°54' W 075°12'1 2.6
2017-Sep-18 19:30N 39°53' W 075°10'4 7.3
2017-Sep-18 19:00N 39°56' W 075°08'4 7.8
2017-Sep-18 18:30N 39°59' W 075°04'1 1.4
2017-Sep-18 18:00N 39°59' W 075°05'0 0.0
2017-Sep-18 17:30N 39°59' W 075°05'0 0.6
2017-Sep-18 17:01N 39°59' W 075°06'4 7.1
2017-Sep-18 16:30N 39°56' W 075°08'2 3.3
2017-Sep-18 16:00N 39°54' W 075°08'2 4.7
2017-Sep-18 15:30N 39°53' W 075°11'1 2.1
2017-Sep-18 15:00N 39°54' W 075°12'0 0.0
2017-Sep-18 14:30N 39°54' W 075°12'0 0.0
2017-Sep-18 14:00N 39°54' W 075°12'0 0.0
2017-Sep-18 13:30N 39°54' W 075°12'0 0.0
2017-Sep-18 13:00N 39°54' W 075°12'0 0.0
2017-Sep-18 12:30N 39°54' W 075°12'0 0.0
2017-Sep-18 12:00N 39°54' W 075°12'0 0.0
2017-Sep-18 11:30N 39°54' W 075°12'0 0.0
2017-Sep-18 11:00N 39°54' W 075°12'0 0.0
2017-Sep-18 10:30N 39°54' W 075°12'0 0.0
2017-Sep-18 10:00N 39°54' W 075°12'0 0.0
2017-Sep-18 09:30N 39°54' W 075°12'0 0.0
2017-Sep-18 09:00N 39°54' W 075°12'0 0.0
2017-Sep-18 08:30N 39°54' W 075°12'0 0.0
2017-Sep-18 08:00N 39°54' W 075°12'0 0.0
2017-Sep-18 07:30N 39°54' W 075°12'0 0.0
2017-Sep-18 07:00N 39°54' W 075°12'0 0.0
2017-Sep-18 06:30N 39°54' W 075°12'0 0.0
2017-Sep-18 06:00N 39°54' W 075°12'0 0.0
2017-Sep-18 05:30N 39°54' W 075°12'0 0.0
2017-Sep-18 05:00N 39°54' W 075°12'0 0.0
2017-Sep-18 04:30N 39°54' W 075°12'0 0.0
2017-Sep-18 04:00N 39°54' W 075°12'0 0.0
2017-Sep-18 03:30N 39°54' W 075°12'0 0.0
2017-Sep-18 03:00N 39°54' W 075°12'0 0.0
2017-Sep-18 02:30N 39°54' W 075°12'0 0.0
2017-Sep-18 02:01N 39°54' W 075°12'0 0.0
2017-Sep-18 01:30N 39°54' W 075°12'3 5.5
2017-Sep-18 01:00N 39°54' W 075°08'4 7.4
2017-Sep-18 00:31N 39°57' W 075°08'2 4.1
2017-Sep-18 00:01N 39°59' W 075°06'0 0.3
2017-Sep-17 23:30N 39°59' W 075°06'0 0.2
2017-Sep-17 23:00N 39°59' W 075°06'0 0.0
2017-Sep-17 22:30N 39°59' W 075°06'0 0.0
2017-Sep-17 22:01N 39°59' W 075°06'0 0.0
2017-Sep-17 21:31N 39°59' W 075°06'0 0.0
2017-Sep-17 21:00N 39°59' W 075°06'0 0.6
2017-Sep-17 20:30N 39°58' W 075°06'3 5.9
2017-Sep-17 20:00N 39°56' W 075°08'2 3.9
2017-Sep-17 19:30N 39°54' W 075°08'1 2.1
2017-Sep-17 19:01N 39°53' W 075°08'1 2.2
2017-Sep-17 18:30N 39°53' W 075°10'2 3.1
2017-Sep-17 18:01N 39°54' W 075°08'0 0.0
2017-Sep-17 17:31N 39°54' W 075°08'0 0.0
2017-Sep-17 17:01N 39°54' W 075°08'0 0.0
2017-Sep-17 16:31N 39°54' W 075°08'0 0.0
2017-Sep-17 16:01N 39°54' W 075°08'0 0.0
2017-Sep-17 15:31N 39°54' W 075°08'0 0.0
2017-Sep-17 15:00N 39°54' W 075°08'0 0.0
2017-Sep-17 14:31N 39°54' W 075°08'0 0.0
2017-Sep-17 14:00N 39°54' W 075°08'0 0.0
2017-Sep-17 13:31N 39°54' W 075°08'0 0.0
2017-Sep-17 13:01N 39°54' W 075°08'0 0.0
2017-Sep-17 12:31N 39°54' W 075°08'0 0.0
2017-Sep-17 12:00N 39°54' W 075°08'0 0.7
2017-Sep-17 11:31N 39°54' W 075°08'0 0.7
2017-Sep-17 11:00N 39°54' W 075°08'0 0.0
2017-Sep-17 10:30N 39°54' W 075°08'0 0.0
2017-Sep-17 10:00N 39°54' W 075°08'0 0.0
2017-Sep-17 09:30N 39°54' W 075°08'0 0.0
2017-Sep-17 09:00N 39°54' W 075°08'0 0.0
2017-Sep-17 08:31N 39°54' W 075°08'0 0.0
2017-Sep-17 08:00N 39°54' W 075°08'0 0.0
2017-Sep-17 07:30N 39°54' W 075°08'0 0.0
2017-Sep-17 07:01N 39°54' W 075°08'0 0.0
2017-Sep-17 06:31N 39°54' W 075°08'0 0.0
2017-Sep-17 06:00N 39°54' W 075°08'0 0.0
2017-Sep-17 05:30N 39°54' W 075°08'2 4.4
2017-Sep-17 05:00N 39°56' W 075°08'3 6.3
2017-Sep-17 04:30N 39°59' W 075°06'0 0.1
2017-Sep-17 04:00N 39°59' W 075°06'2 4.7
2017-Sep-17 03:30N 39°57' W 075°08'2 4.7
2017-Sep-17 03:00N 39°59' W 075°06'0 0.0
2017-Sep-17 02:30N 39°59' W 075°06'0 0.0
2017-Sep-17 02:00N 39°59' W 075°06'2 4.3
2017-Sep-17 01:31N 39°57' W 075°08'3 6.2
2017-Sep-17 01:00N 39°54' W 075°08'1 2.9
2017-Sep-17 00:31N 39°53' W 075°09'2 4.9
2017-Sep-17 00:00N 39°54' W 075°12'0 0.0
2017-Sep-16 23:30N 39°54' W 075°12'0 0.0
2017-Sep-16 23:01N 39°54' W 075°12'0 0.0
2017-Sep-16 22:31N 39°54' W 075°12'0 0.0
2017-Sep-16 22:00N 39°54' W 075°12'0 0.0
2017-Sep-16 21:30N 39°54' W 075°12'0 0.0
2017-Sep-16 21:00N 39°54' W 075°12'0 0.0
2017-Sep-16 20:30N 39°54' W 075°12'0 0.0
2017-Sep-16 20:01N 39°54' W 075°12'0 0.0
2017-Sep-16 19:31N 39°54' W 075°12'0 0.0
2017-Sep-16 19:00N 39°54' W 075°12'0 0.0
2017-Sep-16 18:30N 39°54' W 075°12'1 1.7
2017-Sep-16 18:01N 39°53' W 075°12'3 5.1
2017-Sep-16 17:31N 39°53' W 075°08'1 1.4
2017-Sep-16 17:01N 39°54' W 075°08'0 0.5
2017-Sep-16 16:30N 39°54' W 075°08'0 0.0
2017-Sep-16 16:01N 39°54' W 075°08'0 0.0
2017-Sep-16 15:30N 39°54' W 075°08'0 0.0
2017-Sep-16 15:00N 39°54' W 075°08'1 2.0
2017-Sep-16 14:30N 39°53' W 075°09'4 8.9
2017-Sep-16 14:00N 39°51' W 075°14'0 0.0
2017-Sep-16 13:31N 39°51' W 075°14'2 3.2
2017-Sep-16 13:00N 39°51' W 075°16'2 3.4
2017-Sep-16 12:30N 39°51' W 075°14'3 6.0
2017-Sep-16 12:01N 39°54' W 075°12'0 0.2
2017-Sep-16 11:30N 39°54' W 075°12'0 0.0
2017-Sep-16 11:01N 39°54' W 075°12'0 0.0
2017-Sep-16 10:31N 39°54' W 075°12'0 0.0
2017-Sep-16 10:01N 39°54' W 075°12'0 0.0
2017-Sep-16 09:30N 39°54' W 075°12'0 0.0
2017-Sep-16 09:01N 39°54' W 075°12'0 0.0
2017-Sep-16 08:30N 39°54' W 075°12'0 0.0
2017-Sep-16 08:00N 39°54' W 075°12'0 0.0
2017-Sep-16 07:31N 39°54' W 075°12'0 0.0
2017-Sep-16 07:00N 39°54' W 075°12'0 0.0
2017-Sep-16 06:31N 39°54' W 075°12'0 0.0
2017-Sep-16 06:01N 39°54' W 075°12'0 0.0
2017-Sep-16 05:31N 39°54' W 075°12'0 0.0
2017-Sep-16 05:01N 39°54' W 075°12'0 0.0
2017-Sep-16 04:31N 39°54' W 075°12'0 0.0
2017-Sep-16 04:01N 39°54' W 075°12'0 0.0
2017-Sep-16 03:31N 39°54' W 075°12'1 2.2
2017-Sep-16 03:00N 39°53' W 075°11'0 0.4
2017-Sep-16 02:30N 39°53' W 075°11'1 1.9
2017-Sep-16 02:01N 39°54' W 075°12'0 0.0
2017-Sep-16 01:31N 39°54' W 075°12'3 5.5
2017-Sep-16 01:01N 39°54' W 075°08'2 3.1
2017-Sep-16 00:30N 39°55' W 075°08'0 0.0
2017-Sep-16 00:00N 39°55' W 075°08'2 4.6
2017-Sep-15 23:30N 39°53' W 075°09'2 4.9
2017-Sep-15 23:00N 39°54' W 075°12'0 0.0
2017-Sep-15 22:30N 39°54' W 075°12'0 0.0
2017-Sep-15 22:01N 39°54' W 075°12'0 0.0
2017-Sep-15 21:31N 39°54' W 075°12'0 0.0
2017-Sep-15 21:00N 39°54' W 075°12'0 0.0
2017-Sep-15 20:30N 39°54' W 075°12'0 0.0
2017-Sep-15 20:00N 39°54' W 075°12'0 0.0
2017-Sep-15 19:30N 39°54' W 075°12'0 0.0
2017-Sep-15 19:00N 39°54' W 075°12'0 0.0
2017-Sep-15 18:30N 39°54' W 075°12'0 0.0
2017-Sep-15 18:00N 39°54' W 075°12'0 0.0
2017-Sep-15 17:30N 39°54' W 075°12'0 0.0
2017-Sep-15 17:01N 39°54' W 075°12'3 5.1
2017-Sep-15 16:31N 39°53' W 075°09'1 2.2
2017-Sep-15 16:00N 39°54' W 075°08'1 1.5
2017-Sep-15 15:30N 39°53' W 075°08'2 3.7
2017-Sep-15 15:00N 39°53' W 075°11'2 4.0
2017-Sep-15 14:30N 39°54' W 075°08'1 1.3
2017-Sep-15 14:00N 39°53' W 075°09'3 5.1
2017-Sep-15 13:30N 39°54' W 075°12'0 0.0
2017-Sep-15 13:01N 39°54' W 075°12'0 0.0
2017-Sep-15 12:30N 39°54' W 075°12'0 0.0
2017-Sep-15 12:00N 39°54' W 075°12'0 0.0
2017-Sep-15 11:31N 39°54' W 075°12'0 0.0
2017-Sep-15 11:01N 39°54' W 075°12'0 0.0
2017-Sep-15 10:31N 39°54' W 075°12'0 0.0
2017-Sep-15 10:00N 39°54' W 075°12'0 0.0
2017-Sep-15 09:30N 39°54' W 075°12'0 0.0
2017-Sep-15 09:01N 39°54' W 075°12'0 0.0
2017-Sep-15 08:30N 39°54' W 075°12'0 0.0
2017-Sep-15 08:01N 39°54' W 075°12'0 0.0
2017-Sep-15 07:31N 39°54' W 075°12'0 0.0
2017-Sep-15 07:01N 39°54' W 075°12'0 0.0
2017-Sep-15 06:30N 39°54' W 075°12'0 0.1
2017-Sep-15 06:01N 39°54' W 075°12'3 6.0
2017-Sep-15 05:30N 39°54' W 075°08'1 1.7
2017-Sep-15 05:00N 39°55' W 075°08'0 0.7
2017-Sep-15 04:30N 39°55' W 075°08'1 2.8
2017-Sep-15 04:00N 39°56' W 075°08'0 0.6
2017-Sep-15 03:30N 39°56' W 075°08'1 2.3
2017-Sep-15 03:00N 39°55' W 075°08'1 2.7
2017-Sep-15 02:31N 39°56' W 075°08'0 0.0
2017-Sep-15 02:00N 39°56' W 075°08'0 0.0
2017-Sep-15 01:30N 39°56' W 075°08'0 0.0
2017-Sep-15 01:00N 39°56' W 075°08'2 3.6
2017-Sep-15 00:30N 39°54' W 075°08'0 0.8
2017-Sep-15 00:00N 39°54' W 075°08'0 0.4
2017-Sep-14 23:30N 39°54' W 075°08'0 0.7
2017-Sep-14 23:00N 39°54' W 075°08'0 0.1
2017-Sep-14 22:30N 39°54' W 075°08'3 6.4
2017-Sep-14 22:00N 39°58' W 075°08'3 6.2
2017-Sep-14 21:30N 39°59' W 075°04'0 0.0
2017-Sep-14 21:00N 39°59' W 075°04'0 0.1
2017-Sep-14 20:30N 39°59' W 075°04'3 5.9
2017-Sep-14 20:00N 39°58' W 075°08'4 8.4
2017-Sep-14 19:31N 39°53' W 075°08'3 5.4
2017-Sep-14 19:00N 39°54' W 075°12'0 0.0
2017-Sep-14 18:30N 39°54' W 075°12'0 0.0
2017-Sep-14 18:00N 39°54' W 075°12'0 0.0
2017-Sep-14 17:30N 39°54' W 075°12'0 0.0
2017-Sep-14 17:00N 39°54' W 075°12'0 0.0
2017-Sep-14 16:30N 39°54' W 075°12'0 0.0
2017-Sep-14 16:00N 39°54' W 075°12'0 0.0
2017-Sep-14 15:30N 39°54' W 075°12'0 0.0
2017-Sep-14 15:00N 39°54' W 075°12'0 0.0
2017-Sep-14 14:30N 39°54' W 075°12'0 0.0
2017-Sep-14 14:01N 39°54' W 075°12'0 0.0
2017-Sep-14 13:31N 39°54' W 075°12'0 0.1
2017-Sep-14 13:00N 39°54' W 075°12'0 0.0
2017-Sep-14 12:30N 39°54' W 075°12'0 0.0
2017-Sep-14 12:00N 39°54' W 075°12'0 0.0
2017-Sep-14 11:31N 39°54' W 075°12'0 0.0
2017-Sep-14 11:00N 39°54' W 075°12'0 0.0
2017-Sep-14 10:30N 39°54' W 075°12'0 0.0
2017-Sep-14 10:00N 39°54' W 075°12'0 0.0
2017-Sep-14 09:31N 39°54' W 075°12'0 0.0
2017-Sep-14 09:01N 39°54' W 075°12'0 0.0
2017-Sep-14 08:31N 39°54' W 075°12'0 0.0
2017-Sep-14 08:01N 39°54' W 075°12'0 0.0
2017-Sep-14 07:30N 39°54' W 075°12'0 0.0
2017-Sep-14 07:00N 39°54' W 075°12'0 0.0
2017-Sep-14 06:31N 39°54' W 075°12'0 0.0
2017-Sep-14 06:00N 39°54' W 075°12'0 0.0
2017-Sep-14 05:31N 39°54' W 075°12'0 0.0
2017-Sep-14 05:00N 39°54' W 075°12'0 0.0
2017-Sep-14 04:31N 39°54' W 075°12'0 0.0
2017-Sep-14 04:01N 39°54' W 075°12'0 0.0
2017-Sep-14 03:30N 39°54' W 075°12'0 0.0
2017-Sep-14 03:00N 39°54' W 075°12'2 3.0
2017-Sep-14 02:30N 39°53' W 075°10'2 4.3
2017-Sep-14 02:00N 39°54' W 075°08'1 1.8
2017-Sep-14 01:31N 39°53' W 075°08'0 0.7
2017-Sep-14 01:01N 39°53' W 075°09'0 0.5
2017-Sep-14 00:30N 39°53' W 075°08'3 6.0
2017-Sep-14 00:00N 39°53' W 075°12'1 1.5
2017-Sep-13 23:30N 39°52' W 075°13'0 0.0
2017-Sep-13 23:01N 39°52' W 075°13'1 1.3
2017-Sep-13 22:31N 39°53' W 075°12'1 2.5
2017-Sep-13 22:00N 39°54' W 075°12'0 0.0
2017-Sep-13 21:30N 39°54' W 075°12'0 0.0
2017-Sep-13 21:00N 39°54' W 075°12'0 0.0
2017-Sep-13 20:30N 39°54' W 075°12'0 0.0
2017-Sep-13 20:00N 39°54' W 075°12'0 0.0
2017-Sep-13 19:31N 39°54' W 075°12'0 0.0
2017-Sep-13 19:00N 39°54' W 075°12'0 0.0
2017-Sep-13 18:31N 39°54' W 075°12'0 0.0
2017-Sep-13 18:00N 39°54' W 075°12'0 0.0
2017-Sep-13 17:31N 39°54' W 075°12'0 0.0
2017-Sep-13 17:01N 39°54' W 075°12'0 0.0
2017-Sep-13 16:30N 39°54' W 075°12'0 0.0
2017-Sep-13 16:00N 39°54' W 075°12'0 0.0
2017-Sep-13 15:30N 39°54' W 075°12'0 0.0
2017-Sep-13 15:01N 39°54' W 075°12'0 0.0
2017-Sep-13 14:31N 39°54' W 075°12'0 0.0
2017-Sep-13 14:01N 39°54' W 075°12'0 0.0
2017-Sep-13 13:30N 39°54' W 075°12'0 0.0
2017-Sep-13 13:01N 39°54' W 075°12'0 0.0
2017-Sep-13 12:31N 39°54' W 075°12'0 0.0
2017-Sep-13 12:00N 39°54' W 075°12'0 0.0
2017-Sep-13 11:31N 39°54' W 075°12'0 0.0
2017-Sep-13 11:00N 39°54' W 075°12'0 0.0
2017-Sep-13 10:30N 39°54' W 075°12'0 0.0
2017-Sep-13 10:01N 39°54' W 075°12'0 0.0
2017-Sep-13 09:30N 39°54' W 075°12'0 0.0
2017-Sep-13 09:01N 39°54' W 075°12'0 0.0
2017-Sep-13 08:30N 39°54' W 075°12'0 0.0
2017-Sep-13 08:00N 39°54' W 075°12'0 0.0
2017-Sep-13 07:30N 39°54' W 075°12'0 0.0
2017-Sep-13 07:01N 39°54' W 075°12'0 0.0
2017-Sep-13 06:30N 39°54' W 075°12'0 0.0
2017-Sep-13 06:00N 39°54' W 075°12'0 0.0
2017-Sep-13 05:31N 39°54' W 075°12'0 0.0
2017-Sep-13 05:01N 39°54' W 075°12'0 0.0
2017-Sep-13 04:31N 39°54' W 075°12'0 0.0
2017-Sep-13 04:00N 39°54' W 075°12'0 0.0
2017-Sep-13 03:31N 39°54' W 075°12'0 0.0
2017-Sep-13 03:00N 39°54' W 075°12'0 0.0
2017-Sep-13 02:30N 39°54' W 075°12'0 0.0
2017-Sep-13 02:00N 39°54' W 075°12'0 0.0
2017-Sep-13 01:31N 39°54' W 075°12'0 0.0
2017-Sep-13 01:00N 39°54' W 075°12'0 0.0
2017-Sep-13 00:30N 39°54' W 075°12'0 0.0
2017-Sep-13 00:00N 39°54' W 075°12'0 0.0
2017-Sep-12 23:30N 39°54' W 075°12'0 0.0
2017-Sep-12 23:00N 39°54' W 075°12'0 0.0
2017-Sep-12 22:30N 39°54' W 075°12'0 0.0
2017-Sep-12 22:01N 39°54' W 075°12'0 0.0
2017-Sep-12 21:30N 39°54' W 075°12'0 0.0
2017-Sep-12 21:00N 39°54' W 075°12'0 0.0
2017-Sep-12 20:30N 39°54' W 075°12'0 0.0
2017-Sep-12 20:00N 39°54' W 075°12'0 0.0
2017-Sep-12 19:30N 39°54' W 075°12'0 0.2
2017-Sep-12 19:00N 39°54' W 075°12'4 7.2
2017-Sep-12 18:30N 39°51' W 075°15'0 0.0
2017-Sep-12 18:01N 39°51' W 075°15'0 0.6
2017-Sep-12 17:30N 39°51' W 075°15'0 0.6
2017-Sep-12 17:00N 39°51' W 075°15'0 0.0
2017-Sep-12 16:30N 39°51' W 075°15'2 4.8
2017-Sep-12 16:00N 39°52' W 075°13'1 2.5
2017-Sep-12 15:31N 39°54' W 075°12'0 0.2
2017-Sep-12 15:00N 39°54' W 075°12'0 0.2
2017-Sep-12 14:30N 39°54' W 075°12'0 0.6
2017-Sep-12 14:01N 39°54' W 075°12'0 0.0
2017-Sep-12 13:30N 39°54' W 075°12'0 0.0
2017-Sep-12 13:00N 39°54' W 075°12'0 0.2
2017-Sep-12 12:31N 39°54' W 075°12'21 6.5
2017-Sep-12 09:15N 40°07' W 074°50'1 5.8
2017-Sep-12 09:00N 40°08' W 074°49'3 5.1
2017-Sep-12 08:30N 40°08' W 074°45'0 0.2
2017-Sep-12 08:00N 40°08' W 074°45'4 7.8
2017-Sep-12 07:30N 40°07' W 074°50'4 8.7
2017-Sep-12 07:00N 40°04' W 074°55'5 9.1
2017-Sep-12 06:30N 40°02' W 074°60'4 8.4
2017-Sep-12 06:00N 39°59' W 075°04'4 7.9
2017-Sep-12 05:30N 39°57' W 075°08'4 8.2
2017-Sep-12 05:01N 39°53' W 075°09'2 4.6
2017-Sep-12 04:30N 39°54' W 075°12'0 0.0
2017-Sep-12 04:01N 39°54' W 075°12'0 0.0
2017-Sep-12 03:30N 39°54' W 075°12'0 0.0
2017-Sep-12 03:00N 39°54' W 075°12'0 0.0
2017-Sep-12 02:30N 39°54' W 075°12'0 0.0
2017-Sep-12 02:00N 39°54' W 075°12'2 3.6
2017-Sep-12 01:30N 39°52' W 075°13'5 9.3
2017-Sep-12 01:01N 39°51' W 075°19'5 9.1
2017-Sep-12 00:31N 39°49' W 075°24'5 9.1
2017-Sep-12 00:00N 39°46' W 075°29'5 9.4
2017-Sep-11 23:30N 39°42' W 075°31'5 9.6
2017-Sep-11 23:01N 39°38' W 075°35'4 8.6
2017-Sep-11 22:31N 39°34' W 075°33'1 2.1
2017-Sep-11 22:00N 39°34' W 075°34'2 3.0
2017-Sep-11 21:30N 39°35' W 075°35'0 0.3
2017-Sep-11 21:00N 39°35' W 075°35'0 0.0
2017-Sep-11 20:30N 39°35' W 075°35'0 0.0
2017-Sep-11 20:00N 39°35' W 075°35'1 2.5
2017-Sep-11 19:31N 39°36' W 075°34'3 6.4
2017-Sep-11 19:00N 39°39' W 075°33'3 6.8
2017-Sep-11 18:30N 39°42' W 075°31'3 6.8
2017-Sep-11 18:01N 39°45' W 075°30'4 7.2
2017-Sep-11 17:30N 39°48' W 075°27'4 7.8
2017-Sep-11 17:00N 39°50' W 075°22'4 8.1
2017-Sep-11 16:30N 39°51' W 075°17'2 3.5
2017-Sep-11 16:00N 39°51' W 075°15'1 1.3
2017-Sep-11 15:30N 39°51' W 075°14'0 0.0
2017-Sep-11 15:00N 39°51' W 075°14'0 0.1
2017-Sep-11 14:30N 39°51' W 075°14'1 1.3
2017-Sep-11 14:00N 39°51' W 075°15'1 2.4
2017-Sep-11 13:30N 39°52' W 075°14'3 5.0
2017-Sep-11 13:00N 39°54' W 075°12'0 0.0
2017-Sep-11 12:30N 39°54' W 075°12'2 4.9
2017-Sep-11 12:01N 39°53' W 075°09'5 9.6
2017-Sep-11 11:30N 39°58' W 075°08'4 8.9
2017-Sep-11 11:01N 40°00' W 075°03'510.0
2017-Sep-11 10:30N 40°03' W 074°58'5 9.6
2017-Sep-11 10:00N 40°05' W 074°52'4 7.4
2017-Sep-11 09:30N 40°07' W 074°48'2 4.8
2017-Sep-11 09:00N 40°08' W 074°45'0 0.3
2017-Sep-11 08:30N 40°08' W 074°45'0 0.4
2017-Sep-11 08:00N 40°08' W 074°45'0 0.0
2017-Sep-11 07:30N 40°08' W 074°45'0 0.0
2017-Sep-11 07:00N 40°08' W 074°45'0 0.0
2017-Sep-11 06:30N 40°08' W 074°45'0 0.0
2017-Sep-11 06:01N 40°08' W 074°45'0 0.1
2017-Sep-11 05:28N 40°08' W 074°45'4 8.4
2017-Sep-11 05:00N 40°07' W 074°50'5 9.1
2017-Sep-11 04:30N 40°04' W 074°55'4 8.9
2017-Sep-11 04:00N 40°02' W 074°60'4 8.0
2017-Sep-11 03:30N 39°59' W 075°04'3 6.5
2017-Sep-11 03:00N 39°58' W 075°08'4 7.9
2017-Sep-11 02:30N 39°54' W 075°08'3 5.7
2017-Sep-11 02:00N 39°54' W 075°12'0 0.0
2017-Sep-11 01:30N 39°54' W 075°12'0 0.0
2017-Sep-11 01:00N 39°54' W 075°12'0 0.0
2017-Sep-11 00:30N 39°54' W 075°12'0 0.0
2017-Sep-11 00:00N 39°54' W 075°12'0 0.0
2017-Sep-10 23:30N 39°54' W 075°12'0 0.0
2017-Sep-10 23:00N 39°54' W 075°12'2 4.2
2017-Sep-10 22:30N 39°53' W 075°09'0 0.1
2017-Sep-10 22:00N 39°53' W 075°09'0 0.5
2017-Sep-10 21:30N 39°53' W 075°10'2 4.8
2017-Sep-10 21:00N 39°52' W 075°13'2 3.2
2017-Sep-10 20:30N 39°54' W 075°12'0 0.0
2017-Sep-10 20:00N 39°54' W 075°12'0 0.0
2017-Sep-10 19:30N 39°54' W 075°12'0 0.0
2017-Sep-10 19:00N 39°54' W 075°12'0 0.0
2017-Sep-10 18:30N 39°54' W 075°12'0 0.0
2017-Sep-10 18:00N 39°54' W 075°12'0 0.0
2017-Sep-10 17:31N 39°54' W 075°12'2 4.4
2017-Sep-10 17:00N 39°53' W 075°09'1 2.9
2017-Sep-10 16:30N 39°54' W 075°08'1 2.8
2017-Sep-10 16:00N 39°53' W 075°09'1 2.8
2017-Sep-10 15:31N 39°53' W 075°11'1 1.3
2017-Sep-10 15:00N 39°53' W 075°10'2 1.7
2017-Sep-10 14:00N 39°54' W 075°12'0 0.0
2017-Sep-10 13:30N 39°54' W 075°12'0 0.0
2017-Sep-10 13:00N 39°54' W 075°12'0 0.0
2017-Sep-10 12:30N 39°54' W 075°12'0 0.0
2017-Sep-10 12:00N 39°54' W 075°12'0 0.0
2017-Sep-10 11:31N 39°54' W 075°12'0 0.0
2017-Sep-10 11:00N 39°54' W 075°12'0 0.0
2017-Sep-10 10:31N 39°54' W 075°12'0 0.0
2017-Sep-10 10:00N 39°54' W 075°12'0 0.0
2017-Sep-10 09:31N 39°54' W 075°12'0 0.0
2017-Sep-10 09:01N 39°54' W 075°12'0 0.0
2017-Sep-10 08:31N 39°54' W 075°12'0 0.0
2017-Sep-10 08:01N 39°54' W 075°12'0 0.0
2017-Sep-10 07:31N 39°54' W 075°12'0 0.0
2017-Sep-10 07:00N 39°54' W 075°12'0 0.0
2017-Sep-10 06:30N 39°54' W 075°12'0 0.0
2017-Sep-10 06:01N 39°54' W 075°12'0 0.0
2017-Sep-10 05:30N 39°54' W 075°12'0 0.0
2017-Sep-10 05:00N 39°54' W 075°12'0 0.0
2017-Sep-10 04:30N 39°54' W 075°12'3 5.9
2017-Sep-10 04:00N 39°54' W 075°08'0 0.3
2017-Sep-10 03:30N 39°54' W 075°08'2 4.3
2017-Sep-10 03:00N 39°53' W 075°11'2 4.9
2017-Sep-10 02:30N 39°54' W 075°08'3 5.6
2017-Sep-10 02:00N 39°53' W 075°11'1 2.1
2017-Sep-10 01:30N 39°54' W 075°12'0 0.0
2017-Sep-10 01:00N 39°54' W 075°12'0 0.0
2017-Sep-10 00:30N 39°54' W 075°12'0 0.0
2017-Sep-10 00:01N 39°54' W 075°12'0 0.0
2017-Sep-09 23:31N 39°54' W 075°12'0 0.0
2017-Sep-09 23:00N 39°54' W 075°12'0 0.0
2017-Sep-09 22:30N 39°54' W 075°12'0 0.0
2017-Sep-09 22:00N 39°54' W 075°12'0 0.0
2017-Sep-09 21:30N 39°54' W 075°12'0 0.0
2017-Sep-09 21:00N 39°54' W 075°12'0 0.0
2017-Sep-09 20:30N 39°54' W 075°12'  

Dump ship's entire track history